EST,Max TemperatureF,Mean TemperatureF,Min TemperatureF,Max Dew PointF,MeanDew PointF,Min DewpointF,Max Humidity, Mean Humidity, Min Humidity, Max Sea Level PressureIn, Mean Sea Level PressureIn, Min Sea Level PressureIn, Max VisibilityMiles, Mean VisibilityMiles, Min VisibilityMiles, Max Wind SpeedMPH, Mean Wind SpeedMPH, Max Gust SpeedMPH,PrecipitationIn, CloudCover, Events, WindDirDegrees
2014-1-1,28,24,20,21,18,14,97,82,72,30.32,30.23,30.11,10,8,3,13,6,18,0.00,6,Snow,274
2014-1-2,24,18,13,22,19,8,100,91,77,30.10,29.90,29.69,10,6,2,15,5,22,0.00,6,Snow,34
2014-1-3,15,10,5,8,-2,-8,80,61,35,30.38,30.09,29.78,10,9,3,17,10,23,0.00,4,Snow,319
2014-1-4,26,16,5,9,3,-4,73,59,40,30.34,30.25,30.16,10,10,10,17,5,,0.00,2,,240
2014-1-5,38,23,8,38,16,5,100,79,55,30.18,29.99,29.56,10,8,2,9,0,,0.04,4,Rain,252
2014-1-6,41,20,-2,41,20,-16,100,78,51,29.95,29.63,29.41,10,7,1,28,12,39,0.09,7,Rain-Snow,255
2014-1-7,3,-3,-9,-6,-14,-21,66,57,49,30.31,30.14,29.96,10,9,4,26,18,34,0.00,3,Snow,260
2014-1-8,19,11,3,16,1,-20,89,64,28,30.45,30.38,30.31,10,9,2,15,8,,0.00,6,Snow,234
2014-1-9,32,24,16,18,16,14,95,75,48,30.59,30.48,30.42,10,8,2,8,1,,0.00,6,Snow,216
2014-1-10,37,32,28,32,26,17,91,77,55,30.43,30.30,30.05,10,6,1,9,4,,0.00,8,Snow,219
2014-1-11,46,40,34,43,36,29,93,85,59,30.05,29.67,29.35,10,4,0,22,4,33,0.00,8,Fog-Rain,252
2014-1-12,41,36,32,30,26,25,77,66,60,30.04,29.81,29.53,10,10,7,24,16,32,0.00,6,Rain,266
2014-1-13,48,38,28,39,29,24,86,73,40,30.02,29.93,29.76,10,9,7,8,2,,0.06,2,Rain,249
2014-1-14,48,40,32,41,36,28,93,83,61,29.84,29.75,29.68,10,8,2,10,4,,0.00,6,Fog-Rain,255
2014-1-15,39,36,31,32,25,13,89,69,44,29.95,29.87,29.81,10,10,5,12,3,17,0.00,6,,262
2014-1-16,33,28,23,14,12,9,59,49,38,29.96,29.90,29.82,10,10,10,12,7,,0.00,3,,250
2014-1-17,37,34,30,30,21,14,88,59,49,29.88,29.83,29.81,10,9,2,13,3,,0.00,7,Snow,227
2014-1-18,32,24,15,29,13,3,85,65,46,29.91,29.85,29.81,10,8,1,17,9,21,0.00,6,Snow,255
2014-1-19,33,24,16,19,13,6,80,66,48,29.84,29.72,29.62,10,7,2,22,4,30,0.00,6,Snow,234
2014-1-20,39,34,28,25,19,15,60,53,48,29.88,29.67,29.56,10,10,10,20,10,31,0.00,7,,259
2014-1-21,28,16,5,14,7,-9,74,60,41,29.94,29.88,29.84,10,7,1,14,8,21,0.00,5,Snow,29
2014-1-22,15,8,0,0,-9,-11,63,50,32,29.99,29.94,29.89,10,10,5,12,7,9,0.00,3,,313
2014-1-23,17,12,6,5,0,-4,75,63,41,30.29,30.09,29.98,10,8,3,17,5,20,0.00,6,Snow,260
2014-1-24,19,12,5,-1,-6,-13,66,47,24,30.37,30.19,29.82,10,10,7,17,11,20,0.00,3,Snow,238
2014-1-25,28,22,16,21,2,-10,80,46,28,29.82,29.55,29.31,10,8,1,17,10,29,0.00,6,Snow,236
2014-1-26,25,18,10,14,5,-4,74,59,45,29.79,29.68,29.59,10,8,2,22,11,29,0.00,6,Snow,251
2014-1-27,33,21,9,25,6,-13,70,50,22,30.12,29.74,29.47,10,9,2,23,11,40,0.00,6,Snow,272
2014-1-28,12,5,-2,-11,-12,-15,60,44,29,30.35,30.22,30.13,10,10,10,18,12,30,0.00,3,,260
2014-1-29,19,10,1,-5,-10,-16,51,41,28,30.26,30.17,30.10,10,10,10,18,9,24,0.00,2,,251
2014-1-30,30,20,10,5,-5,-11,49,38,18,30.34,30.20,30.00,10,10,10,12,8,16,0.00,1,,223
2014-1-31,39,32,24,21,9,-2,57,40,30,30.18,30.06,29.98,10,10,10,12,6,,0.00,6,,242